createdAt,value
2023-05-21T00:04:11.876Z,8.43
2023-05-21T00:09:14.686Z,7.18
2023-05-21T00:14:18.852Z,7.47
2023-05-21T00:19:21.724Z,9.48
2023-05-21T00:24:24.586Z,10.23
2023-05-21T00:29:30.164Z,9.55
2023-05-21T00:34:33.485Z,10.27
2023-05-21T00:39:36.554Z,10.38
2023-05-21T00:44:41.339Z,11.20
2023-05-21T00:49:44.262Z,7.72
2023-05-21T00:54:47.986Z,9.40
2023-05-21T00:59:53.879Z,9.45
2023-05-21T01:04:56.753Z,10.70
2023-05-21T01:09:59.590Z,10.75
2023-05-21T01:15:05.131Z,12.05
2023-05-21T01:20:11.155Z,10.30
2023-05-21T01:25:15.560Z,13.10
2023-05-21T01:30:19.689Z,10.10
2023-05-21T01:35:26.195Z,10.55
2023-05-21T01:40:38.288Z,10.65
2023-05-21T01:45:43.323Z,13.77
2023-05-21T01:50:47.357Z,9.45
2023-05-21T01:55:51.705Z,11.10
2023-05-21T02:00:54.781Z,10.35
2023-05-21T02:05:57.756Z,10.70
2023-05-21T02:11:02.000Z,11.27
2023-05-21T02:16:05.260Z,11.02
2023-05-21T02:21:08.156Z,12.00
2023-05-21T02:26:12.393Z,9.63
2023-05-21T02:31:15.435Z,10.70
2023-05-21T02:36:18.977Z,9.88
2023-05-21T02:41:23.382Z,10.77
2023-05-21T02:46:26.620Z,10.25
2023-05-21T02:51:29.537Z,10.75
2023-05-21T02:56:33.766Z,13.00
2023-05-21T03:01:37.436Z,12.18
2023-05-21T03:06:40.412Z,12.68
2023-05-21T03:11:45.170Z,10.35
2023-05-21T03:16:49.165Z,11.30
2023-05-21T03:21:54.628Z,13.63
2023-05-21T03:26:59.201Z,14.35
2023-05-21T03:32:03.040Z,11.68
2023-05-21T03:37:07.658Z,11.25
2023-05-21T03:42:14.088Z,11.40
2023-05-21T03:47:27.519Z,12.80
2023-05-21T03:52:31.023Z,10.05
2023-05-21T03:57:35.926Z,11.52
2023-05-21T04:02:38.976Z,11.75
2023-05-21T04:07:42.966Z,16.13
2023-05-21T04:12:49.171Z,18.45
2023-05-21T04:17:52.406Z,11.70
2023-05-21T04:22:55.514Z,12.40
2023-05-21T04:27:59.985Z,13.30
2023-05-21T04:33:02.967Z,14.05
2023-05-21T04:38:06.652Z,12.90
2023-05-21T04:43:11.427Z,15.30
2023-05-21T04:48:15.814Z,13.95
2023-05-21T04:53:18.930Z,11.80
2023-05-21T04:58:23.180Z,13.73
2023-05-21T05:03:26.820Z,20.40
2023-05-21T05:08:29.812Z,11.75
2023-05-21T05:13:35.462Z,13.93
2023-05-21T05:18:38.586Z,14.43
2023-05-21T05:23:41.648Z,12.55
2023-05-21T05:28:46.934Z,14.82
2023-05-21T05:33:50.368Z,12.23
2023-05-21T05:38:53.605Z,12.55
2023-05-21T05:43:58.759Z,12.45
2023-05-21T05:49:05.484Z,14.85
2023-05-21T05:54:08.367Z,10.93
2023-05-21T05:59:14.133Z,13.32
2023-05-21T06:04:23.095Z,12.93
2023-05-21T06:09:26.058Z,12.40
2023-05-21T06:14:30.283Z,12.57
2023-05-21T06:19:33.179Z,10.88
2023-05-21T06:24:36.506Z,11.63
2023-05-21T06:29:42.203Z,10.77
2023-05-21T06:34:45.175Z,11.52
2023-05-21T06:39:48.530Z,9.98
2023-05-21T06:44:52.950Z,11.45
2023-05-21T06:55:08.279Z,11.75
2023-05-21T07:00:36.552Z,9.10
2023-05-21T07:05:40.392Z,14.02
2023-05-21T07:10:43.449Z,15.90
2023-05-21T07:15:49.093Z,12.73
2023-05-21T07:20:52.050Z,12.95
2023-05-21T07:25:56.394Z,10.80
2023-05-21T07:31:01.012Z,15.40
2023-05-21T07:36:09.915Z,11.13
2023-05-21T07:41:12.898Z,13.65
2023-05-21T07:46:17.522Z,12.95
2023-05-21T07:51:21.934Z,17.42
2023-05-21T07:56:25.116Z,16.80
2023-05-21T08:01:29.982Z,13.80
2023-05-21T08:06:34.525Z,12.30
2023-05-21T08:11:37.919Z,16.42
2023-05-21T08:16:42.268Z,19.50
2023-05-21T08:21:45.204Z,17.92
2023-05-21T08:26:49.617Z,15.80
2023-05-21T08:31:53.937Z,14.07
2023-05-21T08:36:56.760Z,17.30
2023-05-21T08:42:36.454Z,16.13
2023-05-21T08:47:44.676Z,13.93
2023-05-21T08:52:48.476Z,17.90
2023-05-21T08:57:51.944Z,16.67
2023-05-21T09:02:56.492Z,14.13
2023-05-21T09:08:06.828Z,15.63
2023-05-21T09:13:21.770Z,17.08
2023-05-21T09:18:28.545Z,15.38
2023-05-21T09:23:41.007Z,15.05
2023-05-21T09:28:44.562Z,15.60
2023-05-21T09:33:49.038Z,18.45
2023-05-21T09:38:53.545Z,18.83
2023-05-21T09:44:00.278Z,14.00
2023-05-21T09:49:05.650Z,19.08
2023-05-21T09:54:12.368Z,15.48
2023-05-21T09:59:15.409Z,14.10
2023-05-21T10:04:20.094Z,14.98
2023-05-21T10:09:23.390Z,15.23
2023-05-21T10:14:28.747Z,18.67
2023-05-21T10:19:36.353Z,14.45
2023-05-21T10:24:40.655Z,15.60
2023-05-21T10:29:45.476Z,14.10
2023-05-21T10:34:50.472Z,15.23
2023-05-21T10:39:53.507Z,13.63
2023-05-21T10:45:11.387Z,14.07
2023-05-21T10:50:40.814Z,15.88
2023-05-21T10:55:58.394Z,14.80
2023-05-21T11:01:03.415Z,16.13
2023-05-21T11:06:08.490Z,16.23
2023-05-21T11:11:11.453Z,17.27
2023-05-21T11:16:18.603Z,15.80
2023-05-21T11:21:26.170Z,15.30
2023-05-21T11:26:30.588Z,16.60
2023-05-21T11:31:38.297Z,19.42
2023-05-21T11:36:45.625Z,17.42
2023-05-21T11:41:55.183Z,19.42
2023-05-21T11:46:58.899Z,17.95
2023-05-21T11:52:04.153Z,18.98
2023-05-21T11:57:08.031Z,18.75
2023-05-21T12:02:10.807Z,18.13
2023-05-21T12:07:16.062Z,18.50
2023-05-21T12:12:20.238Z,17.90
2023-05-21T12:17:24.920Z,19.35
2023-05-21T12:22:29.847Z,17.95
2023-05-21T12:27:34.721Z,17.15
2023-05-21T12:32:44.009Z,18.67
2023-05-21T12:37:48.335Z,16.42
2023-05-21T12:42:52.065Z,19.30
2023-05-21T12:47:56.492Z,17.65
2023-05-21T12:53:00.977Z,18.00
2023-05-21T12:58:05.403Z,19.80
2023-05-21T13:03:08.612Z,19.48
2023-05-21T13:08:14.353Z,17.48
2023-05-21T13:13:17.212Z,18.75
2023-05-21T13:18:20.845Z,18.60
2023-05-21T13:23:25.604Z,19.05
2023-05-21T13:28:29.285Z,21.25
2023-05-21T13:33:32.688Z,17.77
2023-05-21T13:38:36.954Z,18.98
2023-05-21T13:43:43.602Z,20.38
2023-05-21T13:48:46.394Z,17.70
2023-05-21T13:53:50.610Z,19.00
2023-05-21T13:58:53.414Z,18.75
2023-05-21T14:03:56.234Z,18.40
2023-05-21T14:09:00.538Z,17.85
2023-05-21T14:14:03.906Z,17.98
2023-05-21T14:19:06.756Z,18.90
2023-05-21T14:24:11.161Z,18.50
2023-05-21T14:29:14.041Z,18.58
2023-05-21T14:34:16.837Z,21.02
2023-05-21T14:39:21.027Z,19.10
2023-05-21T14:44:23.858Z,18.60
2023-05-21T14:49:26.725Z,19.77
2023-05-21T14:54:30.994Z,21.08
2023-05-21T14:59:33.871Z,22.38
2023-05-21T15:04:36.678Z,19.00
2023-05-21T15:09:41.018Z,19.20
2023-05-21T15:14:43.891Z,20.90
2023-05-21T15:19:46.739Z,18.15
2023-05-21T15:24:51.008Z,18.05
2023-05-21T15:29:53.943Z,18.80
2023-05-21T15:34:56.821Z,17.55
2023-05-21T15:40:01.139Z,17.35
2023-05-21T15:45:04.508Z,17.60
2023-05-21T15:50:09.362Z,18.65
2023-05-21T15:55:14.389Z,17.67
2023-05-21T16:00:17.632Z,19.75
2023-05-21T16:05:20.520Z,17.80
2023-05-21T16:10:24.859Z,18.92
2023-05-21T16:15:28.508Z,18.25
2023-05-21T16:20:31.355Z,17.75
2023-05-21T16:25:36.569Z,16.88
2023-05-21T16:30:39.764Z,17.20
2023-05-21T16:35:42.620Z,17.15
2023-05-21T16:40:47.205Z,18.90
2023-05-21T16:45:52.394Z,16.02
2023-05-21T16:50:55.317Z,15.80
2023-05-21T16:55:59.583Z,15.40
2023-05-21T17:01:03.796Z,16.48
2023-05-21T17:06:07.561Z,15.05
2023-05-21T17:11:12.016Z,16.27
2023-05-21T17:16:14.967Z,16.38
2023-05-21T17:21:18.491Z,17.60
2023-05-21T17:26:23.139Z,15.02
2023-05-21T17:31:26.055Z,16.23
2023-05-21T17:36:28.966Z,13.57
2023-05-21T17:41:33.182Z,13.95
2023-05-21T17:46:36.075Z,13.35
2023-05-21T17:51:39.573Z,14.98
2023-05-21T17:56:45.638Z,13.90
2023-05-21T18:01:49.385Z,14.60
2023-05-21T18:06:52.576Z,14.90
2023-05-21T18:11:58.209Z,15.70
2023-05-21T18:17:01.356Z,16.00
2023-05-21T18:22:05.059Z,16.30
2023-05-21T18:27:09.534Z,16.33
2023-05-21T18:32:14.364Z,16.17
2023-05-21T18:37:18.417Z,16.30
2023-05-21T18:42:22.649Z,20.33
2023-05-21T18:47:25.660Z,19.77
2023-05-21T18:52:28.570Z,18.85
2023-05-21T18:57:34.349Z,19.17
2023-05-21T19:02:38.405Z,17.70
2023-05-21T19:07:42.138Z,16.42
2023-05-21T19:12:46.765Z,18.42
2023-05-21T19:17:49.763Z,17.60
2023-05-21T19:22:52.671Z,19.95
2023-05-21T19:27:56.906Z,17.55
2023-05-21T19:32:59.884Z,16.60
2023-05-21T19:38:05.139Z,17.20
2023-05-21T19:43:09.737Z,18.48
2023-05-21T19:48:12.609Z,18.15
2023-05-21T19:53:15.563Z,18.58
2023-05-21T19:58:23.704Z,17.63
2023-05-21T20:03:28.007Z,17.75
2023-05-21T20:08:31.027Z,18.23
2023-05-21T20:13:35.301Z,16.30
2023-05-21T20:18:38.188Z,15.40
2023-05-21T20:23:41.200Z,19.55
2023-05-21T20:28:45.688Z,15.30
2023-05-21T20:33:50.642Z,17.80
2023-05-21T20:38:54.098Z,16.13
2023-05-21T20:43:58.972Z,16.23
2023-05-21T20:49:01.833Z,18.20
2023-05-21T20:54:04.822Z,16.67
2023-05-21T20:59:10.889Z,16.20
2023-05-21T21:04:14.274Z,17.92
2023-05-21T21:09:17.583Z,19.13
2023-05-21T21:14:21.832Z,20.52
2023-05-21T21:19:24.621Z,17.67
2023-05-21T21:24:27.464Z,23.10
2023-05-21T21:29:31.720Z,21.15
2023-05-21T21:34:34.609Z,18.70
2023-05-21T21:39:37.507Z,17.95
2023-05-21T21:44:42.130Z,19.58
2023-05-21T21:49:45.047Z,19.85
2023-05-21T21:54:48.145Z,18.38
2023-05-21T21:59:52.356Z,20.02
2023-05-21T22:04:55.752Z,21.45
2023-05-21T22:09:58.668Z,19.55
2023-05-21T22:15:05.374Z,18.27
2023-05-21T22:20:08.987Z,20.40
2023-05-21T22:25:11.779Z,18.40
2023-05-21T22:30:16.029Z,18.80
2023-05-21T22:35:19.727Z,21.35
2023-05-21T22:40:22.531Z,18.10
2023-05-21T22:45:26.687Z,19.55
2023-05-21T22:50:32.883Z,17.05
2023-05-21T22:55:35.863Z,19.42
2023-05-21T23:00:40.227Z,18.13
2023-05-21T23:05:43.427Z,19.13
2023-05-21T23:10:46.360Z,16.48
2023-05-21T23:15:51.438Z,19.77
2023-05-21T23:20:54.282Z,17.40
2023-05-21T23:25:57.726Z,20.85
2023-05-21T23:31:02.066Z,17.23
2023-05-21T23:36:05.193Z,20.50
2023-05-21T23:41:08.258Z,21.75
2023-05-21T23:46:12.509Z,22.85
2023-05-21T23:51:15.611Z,29.10
2023-05-21T23:56:18.365Z,27.58
